Time;durP1;ratioP1;P1;durP2;ratioP2;P2;SDS_P1;SDS_P2;PMS_P1;PMS_P2;Temp;Humidity;BMP_temperature;BMP_pressure;BME280_temperature;BME280_humidity;BME280_pressure;Samples;Min_cycle;Max_cycle;Signal;HPM_P1;HPM_P2
2022/05/22 00:00:01;;;;;;;4.80;3.10;;;;;;;23.25;42.43;100174.98;104862;1303;61359;-82
2022/05/22 00:02:29;;;;;;;5.30;3.10;;;;;;;23.25;42.49;100171.79;104836;1302;61294;-83
2022/05/22 00:04:58;;;;;;;6.60;3.40;;;;;;;23.25;42.50;100174.27;104846;1302;73614;-82
2022/05/22 00:07:27;;;;;;;5.70;3.50;;;;;;;23.25;42.53;100174.48;104834;1301;61775;-82
2022/05/22 00:09:53;;;;;;;5.40;3.00;;;;;;;23.25;42.50;100174.84;105113;1302;61834;-83
2022/05/22 00:12:18;;;;;;;6.30;3.30;;;;;;;23.24;42.61;100180.06;104834;1303;61310;-92
2022/05/22 00:14:44;;;;;;;5.70;3.40;;;;;;;23.24;42.52;100181.50;104868;1302;61475;-83
2022/05/22 00:17:10;;;;;;;4.70;2.90;;;;;;;23.24;42.57;100185.45;104866;1303;61301;-83
2022/05/22 00:19:37;;;;;;;5.00;3.00;;;;;;;23.25;42.63;100187.77;104903;1303;61239;-85
2022/05/22 00:22:03;;;;;;;4.70;3.50;;;;;;;23.25;42.69;100184.36;104792;1302;61082;-83
2022/05/22 00:24:32;;;;;;;4.70;3.00;;;;;;;23.24;42.63;100186.91;105096;1303;61280;-84
2022/05/22 00:27:00;;;;;;;4.50;3.00;;;;;;;23.24;42.75;100193.03;104579;1303;74769;-83
2022/05/22 00:29:29;;;;;;;5.60;3.20;;;;;;;23.24;42.69;100196.81;104746;1303;61286;-82
2022/05/22 00:31:57;;;;;;;5.20;3.20;;;;;;;23.24;42.74;100200.57;104628;1302;61281;-83
2022/05/22 00:34:26;;;;;;;4.90;3.30;;;;;;;23.24;42.77;100200.20;104867;1302;72719;-84
2022/05/22 00:36:51;;;;;;;4.30;2.80;;;;;;;23.24;42.71;100204.37;104867;1302;74801;-86
2022/05/22 00:39:17;;;;;;;5.30;3.00;;;;;;;23.24;42.78;100204.17;104828;1303;61697;-83
2022/05/22 00:41:50;;;;;;;6.00;3.30;;;;;;;23.24;42.71;100205.61;104877;1303;59705;-84
2022/05/22 00:44:16;;;;;;;5.30;3.10;;;;;;;23.24;42.71;100207.75;104846;1302;72585;-85
2022/05/22 00:46:42;;;;;;;5.20;3.00;;;;;;;23.24;42.80;100209.02;104849;1302;61705;-83
2022/05/22 00:49:18;;;;;;;5.00;3.30;;;;;;;23.23;42.75;100209.96;104861;1302;61528;-83
2022/05/22 00:51:56;;;;;;;4.30;3.10;;;;;;;23.24;42.83;100213.52;104803;1303;63011;-84
2022/05/22 00:54:28;;;;;;;4.70;3.10;;;;;;;23.24;42.87;100208.35;104878;1302;73723;-81
2022/05/22 00:57:17;;;;;;;4.70;3.10;;;;;;;23.23;43.02;100211.43;104869;1303;75787;-85
2022/05/22 00:59:54;;;;;;;5.10;2.90;;;;;;;23.23;42.95;100208.23;104883;1302;61220;-83
2022/05/22 01:02:24;;;;;;;4.40;2.80;;;;;;;23.23;43.02;100210.52;105068;1302;61171;-84
2022/05/22 01:04:52;;;;;;;6.80;3.30;;;;;;;23.23;42.84;100211.63;104840;1303;72997;-83
2022/05/22 01:07:23;;;;;;;4.60;3.40;;;;;;;23.23;42.94;100211.44;104827;1302;76160;-83
2022/05/22 01:09:52;;;;;;;4.80;3.00;;;;;;;23.23;42.87;100206.95;104797;1302;61441;-83
2022/05/22 01:12:22;;;;;;;4.70;3.20;;;;;;;23.23;42.93;100206.07;104799;1302;61699;-81
2022/05/22 01:14:51;;;;;;;6.60;3.10;;;;;;;23.23;42.95;100210.02;104752;1302;72572;-83
2022/05/22 01:17:17;;;;;;;5.70;3.10;;;;;;;23.23;43.01;100210.19;104861;1302;74931;-84
2022/05/22 01:20:00;;;;;;;5.70;3.10;;;;;;;23.23;42.99;100213.25;104842;1303;61295;-81
2022/05/22 01:22:27;;;;;;;5.70;3.20;;;;;;;23.23;43.03;100215.74;105064;1302;61193;-82
2022/05/22 01:24:54;;;;;;;5.00;3.00;;;;;;;23.23;43.02;100213.79;105050;1303;73724;-83
2022/05/22 01:27:19;;;;;;;5.50;2.80;;;;;;;23.24;43.08;100220.16;104845;1302;74734;-85
2022/05/22 01:29:45;;;;;;;5.10;3.10;;;;;;;23.23;43.11;100220.73;104885;1303;61313;-83
2022/05/22 01:32:11;;;;;;;4.90;3.00;;;;;;;23.23;43.12;100219.14;104839;1303;61265;-87
2022/05/22 01:34:37;;;;;;;6.20;2.90;;;;;;;23.24;43.19;100221.98;104851;1302;61230;-84
2022/05/22 01:37:06;;;;;;;6.20;3.40;;;;;;;23.23;43.06;100222.54;104801;1303;61288;-82
2022/05/22 01:39:31;;;;;;;9.80;3.30;;;;;;;23.23;43.03;100220.93;104812;1303;61147;-82
2022/05/22 01:41:57;;;;;;;5.00;2.90;;;;;;;23.23;43.10;100227.24;104860;1303;61389;-84
2022/05/22 01:44:23;;;;;;;5.10;3.00;;;;;;;23.23;43.11;100249.88;104797;1303;61290;-86
2022/05/22 01:46:51;;;;;;;4.80;2.90;;;;;;;23.23;43.14;100272.50;104849;1303;61397;-84
2022/05/22 01:49:17;;;;;;;4.80;3.20;;;;;;;23.22;43.23;100275.58;104842;1303;61578;-83
2022/05/22 01:51:43;;;;;;;5.50;3.20;;;;;;;23.23;43.18;100275.92;104891;1303;61326;-83
2022/05/22 01:54:12;;;;;;;5.00;3.00;;;;;;;23.22;43.12;100271.64;105095;1302;61256;-81
2022/05/22 01:56:37;;;;;;;5.60;3.20;;;;;;;23.22;43.26;100272.70;104824;1303;61192;-82
2022/05/22 01:59:05;;;;;;;5.80;3.20;;;;;;;23.22;43.29;100274.16;104761;1303;61813;-83
2022/05/22 02:01:31;;;;;;;4.80;2.90;;;;;;;23.22;43.21;100274.89;105073;1303;61250;-83
2022/05/22 02:03:57;;;;;;;4.70;3.10;;;;;;;23.22;43.30;100272.20;104737;1303;61303;-84
2022/05/22 02:06:23;;;;;;;5.80;3.10;;;;;;;23.22;43.34;100276.14;104871;1302;61377;-83
2022/05/22 02:08:49;;;;;;;4.40;3.10;;;;;;;23.22;43.33;100277.79;104827;1301;59475;-83
2022/05/22 02:11:14;;;;;;;4.70;2.90;;;;;;;23.22;43.33;100281.20;104703;1303;61297;-83
2022/05/22 02:13:43;;;;;;;6.70;3.30;;;;;;;23.22;43.38;100281.92;104899;1302;61365;-84
2022/05/22 02:16:09;;;;;;;4.60;2.90;;;;;;;23.21;43.35;100280.16;104853;1303;61337;-83
2022/05/22 02:18:35;;;;;;;4.00;2.80;;;;;;;23.21;43.41;100275.67;104864;1303;61383;-84
2022/05/22 02:21:01;;;;;;;5.90;3.10;;;;;;;23.21;43.35;100279.63;104830;1303;61230;-84
2022/05/22 02:23:31;;;;;;;5.70;3.40;;;;;;;23.21;43.31;100279.11;105012;1303;61277;-86
2022/05/22 02:25:57;;;;;;;5.00;2.90;;;;;;;23.21;43.46;100280.02;104894;1303;75924;-84
2022/05/22 02:28:26;;;;;;;5.20;3.20;;;;;;;23.21;43.42;100287.39;104835;1303;61591;-85
2022/05/22 02:30:58;;;;;;;4.70;2.90;;;;;;;23.21;43.40;100282.36;104864;1301;60595;-82
2022/05/22 02:33:23;;;;;;;4.70;3.10;;;;;;;23.21;43.40;100287.38;104902;1302;72867;-84
2022/05/22 02:35:51;;;;;;;5.10;3.00;;;;;;;23.20;43.46;100287.27;104843;1302;61560;-83
2022/05/22 02:38:17;;;;;;;4.30;3.10;;;;;;;23.20;43.36;100291.55;104881;1302;61371;-83
2022/05/22 02:40:43;;;;;;;6.10;3.10;;;;;;;23.21;43.30;100292.96;104877;1302;61285;-83
2022/05/22 02:43:09;;;;;;;5.30;3.20;;;;;;;23.20;43.34;100287.95;104550;1303;61312;-82
2022/05/22 02:45:36;;;;;;;5.10;3.30;;;;;;;23.21;43.46;100288.48;104975;1303;61371;-82
2022/05/22 02:48:02;;;;;;;4.40;2.70;;;;;;;23.20;43.38;100293.52;104859;1303;61624;-83
2022/05/22 02:50:29;;;;;;;5.20;3.10;;;;;;;23.21;43.52;100296.02;104857;1303;61286;-84
2022/05/22 02:52:55;;;;;;;6.80;3.30;;;;;;;23.21;43.39;100300.52;104837;1303;61299;-84
2022/05/22 02:55:23;;;;;;;4.80;3.00;;;;;;;23.21;43.41;100303.00;104720;1303;61411;-83
2022/05/22 02:57:49;;;;;;;4.60;2.80;;;;;;;23.20;43.47;100299.29;104873;1303;61293;-84
2022/05/22 03:00:17;;;;;;;4.90;3.20;;;;;;;23.20;43.52;100305.95;104827;1303;61375;-84
2022/05/22 03:02:45;;;;;;;6.40;2.90;;;;;;;23.21;43.48;100310.91;105141;1301;72596;-83
2022/05/22 03:05:11;;;;;;;4.20;3.00;;;;;;;23.21;43.48;100310.00;104846;1303;75715;-82
2022/05/22 03:07:37;;;;;;;4.60;3.10;;;;;;;23.21;43.42;100312.89;104838;1302;61389;-85
2022/05/22 03:10:07;;;;;;;4.40;2.90;;;;;;;23.20;43.47;100309.86;105121;1302;61230;-83
2022/05/22 03:12:35;;;;;;;5.50;3.10;;;;;;;23.21;43.45;100311.96;104870;1303;73093;-83
2022/05/22 03:15:01;;;;;;;5.70;3.00;;;;;;;23.21;43.46;100309.60;104891;1303;76174;-84
2022/05/22 03:17:27;;;;;;;5.90;3.00;;;;;;;23.21;43.43;100310.71;104861;1303;61465;-84
2022/05/22 03:19:53;;;;;;;8.40;3.10;;;;;;;23.21;43.40;100312.36;104857;1302;61301;-83
2022/05/22 03:22:20;;;;;;;5.70;3.00;;;;;;;23.20;43.40;100313.27;104850;1302;61435;-84
2022/05/22 03:24:49;;;;;;;6.10;2.90;;;;;;;23.21;43.46;100312.30;104709;1303;60512;-84
2022/05/22 03:27:16;;;;;;;4.60;3.00;;;;;;;23.21;43.42;100313.36;104847;1302;61364;-83
2022/05/22 03:29:43;;;;;;;4.40;2.60;;;;;;;23.21;43.39;100313.01;104869;1303;61549;-84
2022/05/22 03:32:12;;;;;;;5.60;2.80;;;;;;;23.22;43.41;100314.41;104841;1303;72834;-83
2022/05/22 03:34:38;;;;;;;5.90;2.70;;;;;;;23.22;43.40;100315.84;104888;1303;75549;-81
2022/05/22 03:37:04;;;;;;;4.20;2.70;;;;;;;23.21;43.41;100316.41;104854;1303;61348;-84
2022/05/22 03:39:30;;;;;;;3.80;2.40;;;;;;;23.22;43.35;100318.86;104855;1302;61625;-82
2022/05/22 03:41:56;;;;;;;4.60;2.80;;;;;;;23.22;43.23;100317.26;104888;1302;61257;-82
2022/05/22 03:44:24;;;;;;;6.60;2.70;;;;;;;23.22;43.17;100321.58;104848;1302;61625;-83
2022/05/22 03:46:50;;;;;;;5.40;2.90;;;;;;;23.22;43.18;100319.98;104859;1302;62212;-83
2022/05/22 03:49:16;;;;;;;6.00;2.80;;;;;;;23.22;43.31;100320.50;104867;1302;59338;-84
2022/05/22 03:51:45;;;;;;;4.20;2.50;;;;;;;23.22;43.25;100317.09;104708;1303;61243;-84
2022/05/22 03:54:10;;;;;;;7.90;2.70;;;;;;;23.22;43.21;100315.30;104675;1302;74942;-84
2022/05/22 03:56:38;;;;;;;3.60;2.40;;;;;;;23.22;43.07;100315.26;104840;1303;61337;-84
2022/05/22 03:59:04;;;;;;;5.40;2.50;;;;;;;23.22;43.09;100312.77;104883;1303;61385;-85
2022/05/22 04:01:32;;;;;;;4.80;3.00;;;;;;;23.22;43.16;100313.46;105100;1301;61298;-83
2022/05/22 04:03:58;;;;;;;5.80;2.70;;;;;;;23.22;43.14;100308.80;104825;1302;76075;-84
2022/05/22 04:06:24;;;;;;;3.90;2.30;;;;;;;23.23;43.14;100312.53;105069;1302;61264;-83
2022/05/22 04:08:50;;;;;;;6.50;2.70;;;;;;;23.23;43.07;100315.77;104818;1303;61329;-83
2022/05/22 04:11:17;;;;;;;4.20;2.20;;;;;;;23.23;43.01;100320.77;104838;1302;60029;-82
2022/05/22 04:13:43;;;;;;;3.90;2.20;;;;;;;23.24;43.03;100319.27;104855;1302;61213;-82
2022/05/22 04:16:11;;;;;;;4.50;2.60;;;;;;;23.24;42.92;100321.04;104749;1303;61297;-83
2022/05/22 04:18:37;;;;;;;3.50;2.30;;;;;;;23.24;42.90;100321.73;104842;1302;61886;-85
2022/05/22 04:21:03;;;;;;;4.10;2.40;;;;;;;23.24;42.91;100321.88;105033;1302;61236;-84
2022/05/22 04:26:15;;;;;;;4.30;2.10;;;;;;;23.26;42.88;100323.95;104996;1303;61577;-82
2022/05/22 04:28:41;;;;;;;4.10;2.30;;;;;;;23.25;42.87;100327.20;104858;1302;61502;-82
2022/05/22 04:31:07;;;;;;;3.90;2.10;;;;;;;23.26;42.94;100325.71;104604;1302;60580;-84
2022/05/22 04:33:34;;;;;;;4.20;2.40;;;;;;;23.26;43.06;100325.69;105017;1303;61272;-84
2022/05/22 04:36:04;;;;;;;4.00;2.30;;;;;;;23.27;43.04;100324.57;104800;1303;61412;-88
2022/05/22 04:38:33;;;;;;;5.10;2.20;;;;;;;23.28;43.09;100320.55;104851;1302;61393;-83
2022/05/22 04:41:01;;;;;;;4.80;2.20;;;;;;;23.28;43.04;100323.02;104736;1302;61270;-86
2022/05/22 04:43:30;;;;;;;4.80;2.20;;;;;;;23.29;43.10;100325.66;104727;1303;75853;-84
2022/05/22 04:45:56;;;;;;;3.50;2.20;;;;;;;23.29;43.16;100324.73;104893;1302;61141;-85
2022/05/22 04:48:26;;;;;;;4.20;2.10;;;;;;;23.30;43.12;100323.23;104879;1302;61424;-83
2022/05/22 04:50:55;;;;;;;4.30;2.50;;;;;;;23.31;43.19;100319.73;104889;1303;73788;-83
2022/05/22 04:53:24;;;;;;;3.30;2.00;;;;;;;23.32;43.08;100320.55;104853;1302;74694;-83
2022/05/22 04:55:53;;;;;;;3.70;2.20;;;;;;;23.33;43.17;100320.66;104942;1302;61275;-80
2022/05/22 04:58:19;;;;;;;4.00;2.30;;;;;;;23.34;43.12;100315.73;104797;1303;61186;-82
2022/05/22 05:00:46;;;;;;;3.20;2.10;;;;;;;23.34;43.08;100318.17;105021;1303;61275;-84
2022/05/22 05:03:12;;;;;;;3.20;2.20;;;;;;;23.35;43.16;100322.22;104828;1303;61271;-88
2022/05/22 05:05:37;;;;;;;3.30;2.20;;;;;;;23.36;43.13;100326.45;104751;1303;61223;-84
2022/05/22 05:08:04;;;;;;;3.20;2.00;;;;;;;23.37;43.13;100324.56;104855;1303;61398;-82
2022/05/22 05:10:30;;;;;;;3.50;2.20;;;;;;;23.38;43.07;100322.35;104927;1302;61250;-85
2022/05/22 05:13:00;;;;;;;3.70;2.00;;;;;;;23.39;43.12;100324.21;104963;1302;61382;-84
2022/05/22 05:15:26;;;;;;;3.40;2.10;;;;;;;23.40;43.09;100323.27;104787;1302;61286;-83
2022/05/22 05:17:58;;;;;;;4.80;2.20;;;;;;;23.40;43.10;100323.90;104886;1303;61110;-82
2022/05/22 05:20:24;;;;;;;4.90;2.30;;;;;;;23.41;43.08;100316.69;104950;1301;74384;-82
2022/05/22 05:22:50;;;;;;;4.20;2.30;;;;;;;23.41;43.09;100312.11;104820;1303;61298;-82
2022/05/22 05:25:16;;;;;;;3.60;1.90;;;;;;;23.42;43.05;100315.48;104975;1302;61265;-82
2022/05/22 05:27:45;;;;;;;4.90;2.00;;;;;;;23.43;43.08;100319.70;104841;1303;61325;-82
2022/05/22 05:30:11;;;;;;;3.70;2.00;;;;;;;23.45;43.02;100323.18;104754;1303;74228;-83
2022/05/22 05:32:37;;;;;;;4.00;2.10;;;;;;;23.45;43.05;100323.52;104929;1302;61302;-81
2022/05/22 05:35:06;;;;;;;3.90;2.20;;;;;;;23.46;43.04;100321.30;104737;1303;61247;-84
2022/05/22 05:37:34;;;;;;;5.40;2.10;;;;;;;23.47;42.90;100323.84;104763;1303;61689;-83
2022/05/22 05:39:59;;;;;;;3.30;2.20;;;;;;;23.48;43.04;100332.22;104846;1303;73086;-83
2022/05/22 05:42:30;;;;;;;3.80;2.10;;;;;;;23.49;43.04;100337.13;104830;1303;61278;-84
2022/05/22 05:44:56;;;;;;;3.90;2.10;;;;;;;23.51;42.99;100342.23;104928;1303;61832;-83
2022/05/22 05:47:22;;;;;;;3.50;2.10;;;;;;;23.50;42.97;100342.77;104937;1302;61298;-83
2022/05/22 05:49:47;;;;;;;4.40;2.40;;;;;;;23.51;43.04;100337.52;104819;1303;61417;-82
2022/05/22 05:52:16;;;;;;;4.00;2.10;;;;;;;23.52;42.97;100341.17;104759;1303;62109;-84
2022/05/22 05:54:41;;;;;;;3.80;2.10;;;;;;;23.53;42.91;100346.30;104766;1303;61638;-82
2022/05/22 05:57:11;;;;;;;4.10;2.00;;;;;;;23.54;42.96;100346.04;104723;1303;61426;-83
2022/05/22 05:59:37;;;;;;;4.20;2.10;;;;;;;23.55;42.96;100340.23;105010;1302;72892;-84
2022/05/22 06:02:03;;;;;;;4.00;2.10;;;;;;;23.55;42.84;100342.71;104864;1303;61400;-84
2022/05/22 06:04:29;;;;;;;4.60;2.30;;;;;;;23.55;42.86;100340.19;104806;1303;61206;-81
2022/05/22 06:06:55;;;;;;;5.00;2.20;;;;;;;23.56;42.82;100341.00;105078;1301;61403;-82
2022/05/22 06:09:25;;;;;;;3.20;2.00;;;;;;;23.57;42.89;100337.73;104786;1303;61377;-83
2022/05/22 06:11:50;;;;;;;3.10;1.70;;;;;;;23.57;42.72;100338.23;104877;1303;75768;-83
2022/05/22 06:14:16;;;;;;;4.40;2.40;;;;;;;23.57;42.86;100341.43;104878;1303;61385;-83
2022/05/22 06:16:42;;;;;;;4.10;2.00;;;;;;;23.58;42.87;100347.85;104702;1303;61375;-83
2022/05/22 06:19:08;;;;;;;3.50;1.80;;;;;;;23.58;42.78;100347.14;105064;1303;61351;-83
2022/05/22 06:21:34;;;;;;;5.20;2.00;;;;;;;23.58;42.78;100347.63;104879;1303;61243;-83
2022/05/22 06:24:00;;;;;;;4.10;2.10;;;;;;;23.59;42.66;100349.04;104840;1303;61291;-83
2022/05/22 06:26:29;;;;;;;5.90;2.30;;;;;;;23.59;42.79;100353.84;104879;1303;61302;-83
2022/05/22 06:28:54;;;;;;;4.40;1.90;;;;;;;23.60;42.70;100360.61;105084;1302;61374;-88
2022/05/22 06:31:20;;;;;;;3.40;1.80;;;;;;;23.60;42.75;100361.48;104820;1301;61274;-85
2022/05/22 06:33:46;;;;;;;3.20;1.80;;;;;;;23.60;42.74;100358.61;104853;1302;61315;-84
2022/05/22 06:36:13;;;;;;;3.20;2.00;;;;;;;23.61;42.75;100359.99;104879;1303;61293;-83
2022/05/22 06:41:24;;;;;;;4.00;2.10;;;;;;;23.61;42.71;100351.35;104885;1303;72595;-83
2022/05/22 06:43:53;;;;;;;3.00;2.10;;;;;;;23.61;42.59;100346.13;104818;1303;61272;-82
2022/05/22 06:46:19;;;;;;;3.60;1.90;;;;;;;23.62;42.59;100341.61;104871;1303;61168;-82
2022/05/22 06:48:45;;;;;;;4.10;2.00;;;;;;;23.62;42.68;100340.54;104722;1303;61060;-84
2022/05/22 06:51:11;;;;;;;3.30;1.90;;;;;;;23.62;42.63;100338.33;104785;1303;61299;-83
2022/05/22 06:53:40;;;;;;;4.30;1.90;;;;;;;23.62;42.61;100342.11;104982;1302;74770;-83
2022/05/22 06:56:05;;;;;;;4.50;2.10;;;;;;;23.62;42.66;100335.50;104813;1303;61282;-84
2022/05/22 06:58:33;;;;;;;4.90;1.90;;;;;;;23.63;42.58;100332.91;104903;1302;61285;-82
2022/05/22 07:00:59;;;;;;;3.40;2.00;;;;;;;23.63;42.56;100331.84;104917;1301;72812;-83
2022/05/22 07:03:25;;;;;;;3.80;1.90;;;;;;;23.62;42.64;100328.27;104743;1303;61392;-83
2022/05/22 07:05:51;;;;;;;3.40;1.80;;;;;;;23.63;42.64;100327.33;104878;1302;61322;-83
2022/05/22 07:08:17;;;;;;;4.80;2.00;;;;;;;23.63;42.52;100324.10;105105;1303;61261;-85
2022/05/22 07:13:27;;;;;;;3.50;2.10;;;;;;;23.62;42.53;100322.50;105087;1303;75011;-83
2022/05/22 07:16:00;;;;;;;4.60;2.20;;;;;;;23.63;42.51;100319.98;104872;1303;61387;-87
2022/05/22 07:18:26;;;;;;;3.30;1.80;;;;;;;23.63;42.46;100314.95;104872;1303;61453;-81
2022/05/22 07:20:52;;;;;;;3.60;1.90;;;;;;;23.63;42.54;100311.38;105076;1301;61262;-83
2022/05/22 07:23:18;;;;;;;4.80;2.10;;;;;;;23.63;42.58;100306.84;104737;1303;61347;-82
2022/05/22 07:25:43;;;;;;;2.80;1.80;;;;;;;23.63;42.47;100308.80;104859;1300;61282;-83
2022/05/22 07:28:09;;;;;;;4.50;1.80;;;;;;;23.63;42.52;100307.05;105118;1300;61283;-83
2022/05/22 07:30:35;;;;;;;4.50;1.90;;;;;;;23.63;42.45;100298.98;104758;1303;61325;-80
2022/05/22 07:33:01;;;;;;;4.20;2.00;;;;;;;23.63;42.51;100297.34;104857;1300;61531;-83
2022/05/22 07:35:26;;;;;;;3.80;1.70;;;;;;;23.63;42.47;100293.71;104955;1300;74639;-83
2022/05/22 07:37:52;;;;;;;3.40;1.90;;;;;;;23.63;42.50;100291.92;104838;1300;61333;-83
2022/05/22 07:40:19;;;;;;;3.10;2.00;;;;;;;23.64;42.42;100290.27;105048;1300;61298;-84
2022/05/22 07:42:44;;;;;;;3.70;2.00;;;;;;;23.64;42.44;100288.27;104995;1300;61201;-82
2022/05/22 07:45:12;;;;;;;4.00;2.00;;;;;;;23.64;42.43;100285.89;104748;1300;61367;-83
2022/05/22 07:47:38;;;;;;;4.40;1.80;;;;;;;23.64;42.33;100278.91;104754;1300;61278;-82
2022/05/22 07:50:22;;;;;;;3.70;1.80;;;;;;;23.64;42.46;100282.46;104995;1300;61245;-83
2022/05/22 07:52:48;;;;;;;3.10;1.80;;;;;;;23.65;42.51;100275.26;104825;1300;72669;-82
2022/05/22 07:55:14;;;;;;;4.30;2.10;;;;;;;23.64;42.49;100270.27;105150;1300;61351;-83
2022/05/22 07:57:44;;;;;;;3.70;2.00;;;;;;;23.65;42.42;100265.73;104883;1302;61412;-82
2022/05/22 08:00:14;;;;;;;3.80;1.80;;;;;;;23.64;42.48;100263.23;104838;1300;61275;-82
2022/05/22 08:02:42;;;;;;;3.20;1.80;;;;;;;23.65;42.38;100265.16;104739;1302;74312;-82
2022/05/22 08:05:10;;;;;;;3.20;1.80;;;;;;;23.65;42.38;100260.48;104869;1300;75383;-83
2022/05/22 08:07:38;;;;;;;3.00;1.80;;;;;;;23.64;42.42;100250.86;105037;1300;61167;-83
2022/05/22 08:10:06;;;;;;;3.40;1.60;;;;;;;23.64;42.40;100255.35;104908;1300;61372;-86
2022/05/22 08:12:40;;;;;;;4.00;1.90;;;;;;;23.64;42.42;100251.94;105112;1300;71549;-83
2022/05/22 08:15:07;;;;;;;3.60;2.00;;;;;;;23.64;42.35;100248.16;105061;1300;75536;-83
2022/05/22 08:17:36;;;;;;;5.20;2.00;;;;;;;23.64;42.47;100245.90;105044;1300;61284;-85
2022/05/22 08:20:14;;;;;;;2.50;1.70;;;;;;;23.64;42.43;100248.73;104926;1300;61156;-82
2022/05/22 08:22:48;;;;;;;2.40;1.60;;;;;;;23.63;42.47;100240.50;104860;1300;73332;-84
2022/05/22 08:25:15;;;;;;;3.30;1.70;;;;;;;23.63;42.47;100236.57;104856;1300;73703;-84
2022/05/22 08:27:41;;;;;;;4.30;2.00;;;;;;;23.64;42.54;100233.65;104922;1300;61291;-86
2022/05/22 08:30:09;;;;;;;6.00;2.00;;;;;;;23.64;42.46;100227.58;105104;1300;61944;-84
2022/05/22 08:32:45;;;;;;;5.00;1.80;;;;;;;23.63;42.52;100221.16;104834;1300;73645;-83
2022/05/22 08:35:12;;;;;;;3.60;1.90;;;;;;;23.63;42.49;100217.20;104925;1302;75342;-83
2022/05/22 08:37:47;;;;;;;2.80;1.80;;;;;;;23.63;42.54;100211.46;104893;1303;61282;-84
2022/05/22 08:40:15;;;;;;;4.10;2.00;;;;;;;23.63;42.45;100207.52;105069;1300;60266;-83
2022/05/22 08:42:42;;;;;;;;;;;;;;;23.63;42.47;100202.13;104839;1300;73269;-84
2022/05/22 08:45:19;;;;;;;7.30;2.10;;;;;;;23.59;42.53;100193.98;105040;1300;76014;-84
2022/05/22 08:48:06;;;;;;;2.80;1.80;;;;;;;23.61;42.52;100197.22;105029;1300;61686;-84
2022/05/22 08:50:32;;;;;;;3.50;1.90;;;;;;;23.61;42.46;100199.74;104759;1300;61193;-83
2022/05/22 08:53:00;;;;;;;3.60;1.80;;;;;;;23.62;42.54;100202.92;104923;1300;61390;-84
2022/05/22 09:01:33;;;;;;;2.60;1.80;;;;;;;23.63;42.56;100185.96;105000;1300;61262;-81
2022/05/22 09:04:16;;;;;;;4.10;1.90;;;;;;;23.63;42.58;100186.33;104776;1303;72839;-83
2022/05/22 09:06:50;;;;;;;2.70;1.80;;;;;;;23.63;42.54;100182.22;104861;1300;74015;-83
2022/05/22 09:09:16;;;;;;;4.30;1.90;;;;;;;23.63;42.60;100178.20;105115;1303;61125;-84
2022/05/22 09:12:21;;;;;;;4.70;1.90;;;;;;;23.64;42.53;100178.48;104595;1303;61279;-84
2022/05/22 09:14:51;;;;;;;3.80;1.80;;;;;;;23.64;42.69;100170.40;104784;1302;72801;-84
2022/05/22 09:17:18;;;;;;;5.50;1.90;;;;;;;23.64;42.60;100170.40;104786;1302;74910;-83
2022/05/22 09:20:04;;;;;;;3.00;1.80;;;;;;;23.65;42.63;100170.30;104799;1302;61887;-82
2022/05/22 09:22:42;;;;;;;3.50;1.80;;;;;;;23.66;42.69;100164.67;105081;1301;61897;-84
2022/05/22 09:25:36;;;;;;;3.40;1.80;;;;;;;23.66;42.64;100161.61;104829;1303;73717;-84
2022/05/22 09:28:14;;;;;;;5.30;1.80;;;;;;;23.65;42.63;100159.16;105136;1302;75118;-84
2022/05/22 09:30:47;;;;;;;3.20;1.90;;;;;;;23.66;42.66;100152.85;105115;1303;61419;-82
2022/05/22 09:33:34;;;;;;;4.80;1.70;;;;;;;23.66;42.68;100151.91;104868;1303;61249;-84
2022/05/22 09:36:22;;;;;;;4.20;1.80;;;;;;;23.65;42.68;100141.59;105008;1302;74011;-85
2022/05/22 09:39:11;;;;;;;3.30;1.80;;;;;;;23.65;42.74;100139.08;104843;1302;75898;-82
2022/05/22 09:42:09;;;;;;;3.80;1.90;;;;;;;23.65;42.68;100132.45;104841;1303;62089;-82
2022/05/22 09:45:05;;;;;;;3.90;2.00;;;;;;;23.64;42.73;100125.17;104801;1303;61779;-83
2022/05/22 09:47:44;;;;;;;2.90;1.70;;;;;;;23.63;42.74;100128.11;104224;1311;72815;-83
2022/05/22 09:50:29;;;;;;;3.20;1.80;;;;;;;23.63;42.78;100122.86;104323;1311;74647;-83
2022/05/22 09:53:47;;;;;;;4.00;1.80;;;;;;;23.63;42.69;100120.42;104200;1311;61090;-82
2022/05/22 09:56:42;;;;;;;4.40;1.90;;;;;;;23.62;42.80;100121.54;103191;1322;61191;-83
2022/05/22 09:59:17;;;;;;;4.50;1.90;;;;;;;23.61;42.67;100118.17;103033;1322;73463;-84
2022/05/22 10:01:44;;;;;;;5.20;2.00;;;;;;;23.61;42.68;100117.30;103151;1321;74881;-83
2022/05/22 10:04:42;;;;;;;2.70;1.70;;;;;;;23.61;42.62;100111.71;103041;1323;61443;-84
2022/05/22 10:07:14;;;;;;;2.50;1.70;;;;;;;23.61;42.81;100104.36;102684;1326;61361;-84
2022/05/22 10:10:18;;;;;;;3.60;1.80;;;;;;;23.61;42.87;100099.38;102678;1326;74030;-83
2022/05/22 10:13:33;;;;;;;4.00;1.90;;;;;;;23.61;42.88;100100.97;102372;1332;74950;-83
2022/05/22 10:16:15;;;;;;;3.90;1.80;;;;;;;23.60;42.89;100094.95;102093;1332;61495;-90
2022/05/22 10:18:58;;;;;;;3.30;1.90;;;;;;;23.60;42.74;100099.05;102387;1332;61339;-83
2022/05/22 10:21:34;;;;;;;2.80;1.60;;;;;;;23.60;42.84;100090.45;102389;1332;73007;-82
2022/05/22 10:24:26;;;;;;;2.80;1.90;;;;;;;23.61;42.85;100086.08;102443;1329;75857;-82
2022/05/22 10:27:00;;;;;;;3.30;1.80;;;;;;;23.61;42.80;100081.77;102625;1328;61540;-92
2022/05/22 10:29:29;;;;;;;5.30;1.70;;;;;;;23.60;42.85;100087.89;102585;1329;61468;-84
2022/05/22 10:32:09;;;;;;;3.10;1.80;;;;;;;23.61;42.91;100084.27;102534;1328;72804;-83
2022/05/22 10:35:14;;;;;;;2.50;1.70;;;;;;;23.60;42.86;100082.87;104026;1314;73625;-83
2022/05/22 10:38:19;;;;;;;3.00;1.80;;;;;;;23.60;42.87;100081.33;103721;1316;61304;-84
2022/05/22 10:43:39;;;;;;;2.90;1.70;;;;;;;23.59;42.98;100075.59;103759;1310;73933;-83
2022/05/22 10:46:05;;;;;;;3.80;1.90;;;;;;;23.59;42.99;100071.48;104408;1309;75889;-81
2022/05/22 10:48:33;;;;;;;6.70;1.90;;;;;;;23.59;42.99;100064.67;104532;1303;61368;-84
2022/05/22 10:51:08;;;;;;;2.90;1.90;;;;;;;23.59;42.94;100057.66;104744;1302;61357;-84
2022/05/22 10:53:58;;;;;;;3.70;1.70;;;;;;;23.59;42.94;100053.72;104851;1303;73838;-83
2022/05/22 10:56:31;;;;;;;;;;;;;;;23.59;42.94;100053.02;104851;1303;75856;-83
2022/05/22 10:59:08;;;;;;;5.00;1.90;;;;;;;23.56;42.99;100046.30;104964;1302;61320;-83
2022/05/22 11:01:39;;;;;;;4.20;1.80;;;;;;;23.57;43.01;100044.23;104882;1303;61333;-83
2022/05/22 11:04:14;;;;;;;3.20;2.00;;;;;;;23.57;42.93;100035.77;104780;1300;72801;-83
2022/05/22 11:07:00;;;;;;;2.60;1.80;;;;;;;23.57;42.94;100032.34;104963;1300;75621;-84
2022/05/22 11:09:33;;;;;;;3.80;1.80;;;;;;;23.57;42.95;100035.38;104975;1300;62877;-84
2022/05/22 11:12:05;;;;;;;3.60;1.70;;;;;;;23.58;42.97;100031.92;104883;1300;61653;-84
2022/05/22 11:14:33;;;;;;;3.80;1.90;;;;;;;23.58;42.95;100022.90;105088;1303;71767;-83
2022/05/22 11:17:14;;;;;;;3.70;2.00;;;;;;;23.58;42.98;100022.89;105067;1303;74805;-83
2022/05/22 11:19:41;;;;;;;4.50;1.90;;;;;;;23.59;42.96;100025.70;105025;1300;61240;-83
2022/05/22 11:22:25;;;;;;;3.30;1.80;;;;;;;23.58;43.01;100016.57;104865;1303;61342;-83
2022/05/22 11:24:58;;;;;;;3.20;1.70;;;;;;;23.59;42.93;100014.42;104073;1303;73171;-82
2022/05/22 11:27:33;;;;;;;3.40;1.90;;;;;;;23.59;42.92;100009.37;104963;1302;75926;-82
2022/05/22 11:30:30;;;;;;;2.70;1.70;;;;;;;23.59;43.03;100007.89;105050;1300;61323;-82
2022/05/22 11:33:15;;;;;;;3.40;1.90;;;;;;;23.60;43.07;99997.57;104709;1302;61436;-82
2022/05/22 11:36:02;;;;;;;3.50;1.90;;;;;;;23.61;42.91;99997.70;104833;1302;73026;-84
2022/05/22 11:38:43;;;;;;;4.80;1.80;;;;;;;23.61;42.88;99997.34;105072;1300;74895;-83
2022/05/22 11:41:18;;;;;;;3.30;1.90;;;;;;;23.62;42.89;99994.02;104895;1302;61202;-83
2022/05/22 11:43:59;;;;;;;5.00;1.90;;;;;;;23.62;42.79;99991.16;105122;1299;61171;-83
2022/05/22 11:46:49;;;;;;;3.00;1.80;;;;;;;23.62;42.78;99983.21;105136;1303;73831;-83
2022/05/22 11:49:38;;;;;;;4.40;2.10;;;;;;;23.62;42.80;99977.81;105058;1300;75869;-83